sensor_id;sensor_type;location;lat;lon;timestamp;P1;durP1;ratioP1;P2;durP2;ratioP2
5900;SDS011;2976;49.764;9.796;2023-04-03T00:00:08;3.47;;;1.90;;
5900;SDS011;2976;49.764;9.796;2023-04-03T00:02:35;5.83;;;1.60;;
5900;SDS011;2976;49.764;9.796;2023-04-03T00:05:00;3.73;;;2.50;;
5900;SDS011;2976;49.764;9.796;2023-04-03T00:07:26;2.20;;;2.00;;
5900;SDS011;2976;49.764;9.796;2023-04-03T00:09:51;4.00;;;1.70;;
5900;SDS011;2976;49.764;9.796;2023-04-03T00:12:17;2.00;;;1.90;;
5900;SDS011;2976;49.764;9.796;2023-04-03T00:14:42;3.20;;;2.53;;
5900;SDS011;2976;49.764;9.796;2023-04-03T00:17:08;2.80;;;2.57;;
5900;SDS011;2976;49.764;9.796;2023-04-03T00:19:33;11.30;;;1.87;;
5900;SDS011;2976;49.764;9.796;2023-04-03T00:21:59;2.50;;;2.30;;
5900;SDS011;2976;49.764;9.796;2023-04-03T00:24:25;2.23;;;2.03;;
5900;SDS011;2976;49.764;9.796;2023-04-03T00:26:50;4.53;;;2.47;;
5900;SDS011;2976;49.764;9.796;2023-04-03T00:29:16;6.40;;;2.93;;
5900;SDS011;2976;49.764;9.796;2023-04-03T00:31:42;6.87;;;2.60;;
5900;SDS011;2976;49.764;9.796;2023-04-03T00:34:07;3.47;;;2.23;;
5900;SDS011;2976;49.764;9.796;2023-04-03T00:36:33;2.73;;;2.33;;
5900;SDS011;2976;49.764;9.796;2023-04-03T00:38:58;2.70;;;2.50;;
5900;SDS011;2976;49.764;9.796;2023-04-03T00:41:24;4.10;;;2.50;;
5900;SDS011;2976;49.764;9.796;2023-04-03T00:43:50;3.37;;;2.30;;
5900;SDS011;2976;49.764;9.796;2023-04-03T00:46:15;2.37;;;2.17;;
5900;SDS011;2976;49.764;9.796;2023-04-03T00:48:42;6.20;;;2.47;;
5900;SDS011;2976;49.764;9.796;2023-04-03T00:51:11;3.03;;;2.37;;
5900;SDS011;2976;49.764;9.796;2023-04-03T00:54:02;6.77;;;2.30;;
5900;SDS011;2976;49.764;9.796;2023-04-03T00:56:29;3.40;;;1.87;;
5900;SDS011;2976;49.764;9.796;2023-04-03T00:58:59;3.63;;;2.23;;
5900;SDS011;2976;49.764;9.796;2023-04-03T01:01:30;2.40;;;2.20;;
5900;SDS011;2976;49.764;9.796;2023-04-03T01:03:58;3.37;;;2.33;;
5900;SDS011;2976;49.764;9.796;2023-04-03T01:06:26;3.90;;;2.50;;
5900;SDS011;2976;49.764;9.796;2023-04-03T01:08:56;3.70;;;2.47;;
5900;SDS011;2976;49.764;9.796;2023-04-03T01:11:21;6.13;;;2.00;;
5900;SDS011;2976;49.764;9.796;2023-04-03T01:13:47;2.30;;;2.20;;
5900;SDS011;2976;49.764;9.796;2023-04-03T01:16:14;5.10;;;3.90;;
5900;SDS011;2976;49.764;9.796;2023-04-03T01:18:40;3.83;;;2.30;;
5900;SDS011;2976;49.764;9.796;2023-04-03T01:24:05;3.27;;;1.90;;
5900;SDS011;2976;49.764;9.796;2023-04-03T01:26:45;4.83;;;2.40;;
5900;SDS011;2976;49.764;9.796;2023-04-03T01:29:11;2.50;;;2.30;;
5900;SDS011;2976;49.764;9.796;2023-04-03T01:34:05;4.07;;;2.67;;
5900;SDS011;2976;49.764;9.796;2023-04-03T01:36:31;4.30;;;2.47;;
5900;SDS011;2976;49.764;9.796;2023-04-03T01:38:58;3.43;;;1.97;;
5900;SDS011;2976;49.764;9.796;2023-04-03T01:41:25;2.97;;;2.40;;
5900;SDS011;2976;49.764;9.796;2023-04-03T01:43:51;3.23;;;2.23;;
5900;SDS011;2976;49.764;9.796;2023-04-03T01:46:17;2.43;;;2.20;;
5900;SDS011;2976;49.764;9.796;2023-04-03T01:48:43;3.77;;;2.43;;
5900;SDS011;2976;49.764;9.796;2023-04-03T01:51:10;8.80;;;3.40;;
5900;SDS011;2976;49.764;9.796;2023-04-03T01:53:35;2.70;;;2.50;;
5900;SDS011;2976;49.764;9.796;2023-04-03T01:56:01;5.83;;;2.27;;
5900;SDS011;2976;49.764;9.796;2023-04-03T01:58:26;11.77;;;2.50;;
5900;SDS011;2976;49.764;9.796;2023-04-03T02:00:52;3.63;;;2.43;;
5900;SDS011;2976;49.764;9.796;2023-04-03T02:03:18;3.80;;;2.93;;
5900;SDS011;2976;49.764;9.796;2023-04-03T02:05:44;6.83;;;3.03;;
5900;SDS011;2976;49.764;9.796;2023-04-03T02:08:10;5.50;;;3.47;;
5900;SDS011;2976;49.764;9.796;2023-04-03T02:10:36;3.37;;;2.67;;
5900;SDS011;2976;49.764;9.796;2023-04-03T02:13:01;3.53;;;2.67;;
5900;SDS011;2976;49.764;9.796;2023-04-03T02:15:27;3.10;;;2.80;;
5900;SDS011;2976;49.764;9.796;2023-04-03T02:17:53;3.70;;;2.37;;
5900;SDS011;2976;49.764;9.796;2023-04-03T02:20:18;3.97;;;2.80;;
5900;SDS011;2976;49.764;9.796;2023-04-03T02:22:44;4.77;;;2.90;;
5900;SDS011;2976;49.764;9.796;2023-04-03T02:25:10;8.43;;;2.57;;
5900;SDS011;2976;49.764;9.796;2023-04-03T02:27:36;2.83;;;1.70;;
5900;SDS011;2976;49.764;9.796;2023-04-03T02:30:02;2.30;;;2.13;;
5900;SDS011;2976;49.764;9.796;2023-04-03T02:32:28;3.33;;;2.50;;
5900;SDS011;2976;49.764;9.796;2023-04-03T02:34:54;3.13;;;2.17;;
5900;SDS011;2976;49.764;9.796;2023-04-03T02:37:20;2.67;;;2.20;;
5900;SDS011;2976;49.764;9.796;2023-04-03T02:39:46;4.73;;;1.90;;
5900;SDS011;2976;49.764;9.796;2023-04-03T02:42:11;4.13;;;2.27;;
5900;SDS011;2976;49.764;9.796;2023-04-03T02:44:37;1.60;;;1.50;;
5900;SDS011;2976;49.764;9.796;2023-04-03T02:47:03;4.20;;;2.03;;
5900;SDS011;2976;49.764;9.796;2023-04-03T02:49:29;2.10;;;1.97;;
5900;SDS011;2976;49.764;9.796;2023-04-03T02:51:55;6.73;;;2.00;;
5900;SDS011;2976;49.764;9.796;2023-04-03T02:54:20;4.63;;;2.60;;
5900;SDS011;2976;49.764;9.796;2023-04-03T02:56:48;3.17;;;2.13;;
5900;SDS011;2976;49.764;9.796;2023-04-03T02:59:13;3.40;;;2.10;;
5900;SDS011;2976;49.764;9.796;2023-04-03T03:01:39;3.30;;;1.53;;
5900;SDS011;2976;49.764;9.796;2023-04-03T03:04:04;3.40;;;2.23;;
5900;SDS011;2976;49.764;9.796;2023-04-03T03:06:30;4.83;;;2.27;;
5900;SDS011;2976;49.764;9.796;2023-04-03T03:08:56;5.87;;;2.47;;
5900;SDS011;2976;49.764;9.796;2023-04-03T03:11:21;2.70;;;2.40;;
5900;SDS011;2976;49.764;9.796;2023-04-03T03:13:47;8.23;;;2.40;;
5900;SDS011;2976;49.764;9.796;2023-04-03T03:16:12;2.63;;;2.43;;
5900;SDS011;2976;49.764;9.796;2023-04-03T03:18:38;5.10;;;2.40;;
5900;SDS011;2976;49.764;9.796;2023-04-03T03:21:03;8.43;;;3.17;;
5900;SDS011;2976;49.764;9.796;2023-04-03T03:23:30;4.00;;;2.63;;
5900;SDS011;2976;49.764;9.796;2023-04-03T03:26:01;3.70;;;2.47;;
5900;SDS011;2976;49.764;9.796;2023-04-03T03:28:28;2.80;;;2.60;;
5900;SDS011;2976;49.764;9.796;2023-04-03T03:30:54;6.67;;;2.93;;
5900;SDS011;2976;49.764;9.796;2023-04-03T03:33:20;7.30;;;2.67;;
5900;SDS011;2976;49.764;9.796;2023-04-03T03:35:45;13.50;;;3.07;;
5900;SDS011;2976;49.764;9.796;2023-04-03T03:38:11;6.47;;;3.30;;
5900;SDS011;2976;49.764;9.796;2023-04-03T03:40:36;3.40;;;2.90;;
5900;SDS011;2976;49.764;9.796;2023-04-03T03:43:02;6.03;;;3.20;;
5900;SDS011;2976;49.764;9.796;2023-04-03T03:45:28;6.60;;;2.90;;
5900;SDS011;2976;49.764;9.796;2023-04-03T03:47:54;3.13;;;2.77;;
5900;SDS011;2976;49.764;9.796;2023-04-03T03:50:19;5.47;;;3.03;;
5900;SDS011;2976;49.764;9.796;2023-04-03T03:52:45;6.57;;;3.30;;
5900;SDS011;2976;49.764;9.796;2023-04-03T03:55:11;6.23;;;2.93;;
5900;SDS011;2976;49.764;9.796;2023-04-03T03:57:37;5.10;;;2.70;;
5900;SDS011;2976;49.764;9.796;2023-04-03T04:00:02;5.87;;;3.03;;
5900;SDS011;2976;49.764;9.796;2023-04-03T04:02:29;3.07;;;2.83;;
5900;SDS011;2976;49.764;9.796;2023-04-03T04:04:54;5.00;;;2.90;;
5900;SDS011;2976;49.764;9.796;2023-04-03T04:07:20;3.90;;;2.60;;
5900;SDS011;2976;49.764;9.796;2023-04-03T04:09:45;6.53;;;3.90;;
5900;SDS011;2976;49.764;9.796;2023-04-03T04:12:11;4.37;;;3.00;;
5900;SDS011;2976;49.764;9.796;2023-04-03T04:14:36;5.13;;;2.80;;
5900;SDS011;2976;49.764;9.796;2023-04-03T04:17:02;4.67;;;3.47;;
5900;SDS011;2976;49.764;9.796;2023-04-03T04:19:28;12.20;;;2.73;;
5900;SDS011;2976;49.764;9.796;2023-04-03T04:21:53;3.50;;;3.00;;
5900;SDS011;2976;49.764;9.796;2023-04-03T04:24:19;2.90;;;2.70;;
5900;SDS011;2976;49.764;9.796;2023-04-03T04:26:44;6.10;;;3.80;;
5900;SDS011;2976;49.764;9.796;2023-04-03T04:29:10;4.17;;;2.60;;
5900;SDS011;2976;49.764;9.796;2023-04-03T04:31:36;9.20;;;2.00;;
5900;SDS011;2976;49.764;9.796;2023-04-03T04:34:01;9.10;;;2.30;;
5900;SDS011;2976;49.764;9.796;2023-04-03T04:36:27;3.17;;;2.77;;
5900;SDS011;2976;49.764;9.796;2023-04-03T04:38:53;5.50;;;3.10;;
5900;SDS011;2976;49.764;9.796;2023-04-03T04:41:21;4.90;;;2.50;;
5900;SDS011;2976;49.764;9.796;2023-04-03T04:43:48;2.83;;;2.63;;
5900;SDS011;2976;49.764;9.796;2023-04-03T04:46:14;7.97;;;2.90;;
5900;SDS011;2976;49.764;9.796;2023-04-03T04:48:40;3.90;;;2.50;;
5900;SDS011;2976;49.764;9.796;2023-04-03T04:51:05;8.77;;;2.47;;
5900;SDS011;2976;49.764;9.796;2023-04-03T04:53:31;2.80;;;2.60;;
5900;SDS011;2976;49.764;9.796;2023-04-03T04:55:57;2.37;;;1.87;;
5900;SDS011;2976;49.764;9.796;2023-04-03T04:58:22;4.90;;;2.60;;
5900;SDS011;2976;49.764;9.796;2023-04-03T05:00:48;6.70;;;3.40;;
5900;SDS011;2976;49.764;9.796;2023-04-03T05:03:13;7.40;;;2.57;;
5900;SDS011;2976;49.764;9.796;2023-04-03T05:05:39;2.90;;;2.37;;
5900;SDS011;2976;49.764;9.796;2023-04-03T05:08:05;3.03;;;2.70;;
5900;SDS011;2976;49.764;9.796;2023-04-03T05:10:30;6.70;;;3.40;;
5900;SDS011;2976;49.764;9.796;2023-04-03T05:12:56;5.60;;;3.37;;
5900;SDS011;2976;49.764;9.796;2023-04-03T05:15:22;4.87;;;2.83;;
5900;SDS011;2976;49.764;9.796;2023-04-03T05:17:48;3.63;;;2.73;;
5900;SDS011;2976;49.764;9.796;2023-04-03T05:20:14;2.50;;;2.07;;
5900;SDS011;2976;49.764;9.796;2023-04-03T05:22:40;4.80;;;2.90;;
5900;SDS011;2976;49.764;9.796;2023-04-03T05:25:05;5.60;;;3.60;;
5900;SDS011;2976;49.764;9.796;2023-04-03T05:27:31;4.80;;;2.60;;
5900;SDS011;2976;49.764;9.796;2023-04-03T05:29:57;3.60;;;2.13;;
5900;SDS011;2976;49.764;9.796;2023-04-03T05:32:23;6.13;;;2.90;;
5900;SDS011;2976;49.764;9.796;2023-04-03T05:34:51;5.47;;;2.73;;
5900;SDS011;2976;49.764;9.796;2023-04-03T05:37:16;3.17;;;2.40;;
5900;SDS011;2976;49.764;9.796;2023-04-03T05:39:42;5.77;;;2.93;;
5900;SDS011;2976;49.764;9.796;2023-04-03T05:42:08;4.40;;;2.90;;
5900;SDS011;2976;49.764;9.796;2023-04-03T05:44:33;3.93;;;2.40;;
5900;SDS011;2976;49.764;9.796;2023-04-03T05:46:59;9.80;;;2.53;;
5900;SDS011;2976;49.764;9.796;2023-04-03T05:49:24;5.67;;;2.73;;
5900;SDS011;2976;49.764;9.796;2023-04-03T05:51:50;6.03;;;3.07;;
5900;SDS011;2976;49.764;9.796;2023-04-03T05:54:29;4.20;;;2.23;;
5900;SDS011;2976;49.764;9.796;2023-04-03T05:56:55;6.00;;;2.20;;
5900;SDS011;2976;49.764;9.796;2023-04-03T05:59:21;5.20;;;2.97;;
5900;SDS011;2976;49.764;9.796;2023-04-03T06:01:47;5.40;;;2.07;;
5900;SDS011;2976;49.764;9.796;2023-04-03T06:04:12;9.27;;;2.90;;
5900;SDS011;2976;49.764;9.796;2023-04-03T06:06:42;6.63;;;2.43;;
5900;SDS011;2976;49.764;9.796;2023-04-03T06:09:20;4.73;;;2.23;;
5900;SDS011;2976;49.764;9.796;2023-04-03T06:11:47;7.50;;;2.80;;
5900;SDS011;2976;49.764;9.796;2023-04-03T06:14:12;6.73;;;2.00;;
5900;SDS011;2976;49.764;9.796;2023-04-03T06:16:38;8.63;;;2.53;;
5900;SDS011;2976;49.764;9.796;2023-04-03T06:19:04;5.07;;;2.17;;
5900;SDS011;2976;49.764;9.796;2023-04-03T06:21:31;7.17;;;2.20;;
5900;SDS011;2976;49.764;9.796;2023-04-03T06:23:57;8.27;;;1.93;;
5900;SDS011;2976;49.764;9.796;2023-04-03T06:26:23;5.00;;;2.23;;
5900;SDS011;2976;49.764;9.796;2023-04-03T06:28:48;1.70;;;1.60;;
5900;SDS011;2976;49.764;9.796;2023-04-03T06:31:14;6.10;;;2.10;;
5900;SDS011;2976;49.764;9.796;2023-04-03T06:33:40;1.90;;;1.60;;
5900;SDS011;2976;49.764;9.796;2023-04-03T06:36:05;2.73;;;2.53;;
5900;SDS011;2976;49.764;9.796;2023-04-03T06:38:34;4.17;;;2.20;;
5900;SDS011;2976;49.764;9.796;2023-04-03T06:41:00;1.93;;;1.73;;
5900;SDS011;2976;49.764;9.796;2023-04-03T06:43:25;3.53;;;2.10;;
5900;SDS011;2976;49.764;9.796;2023-04-03T06:45:51;2.70;;;1.63;;
5900;SDS011;2976;49.764;9.796;2023-04-03T06:48:17;2.60;;;1.87;;
5900;SDS011;2976;49.764;9.796;2023-04-03T06:50:42;5.63;;;1.80;;
5900;SDS011;2976;49.764;9.796;2023-04-03T06:53:08;2.67;;;1.80;;
5900;SDS011;2976;49.764;9.796;2023-04-03T06:55:34;3.20;;;1.80;;
5900;SDS011;2976;49.764;9.796;2023-04-03T06:58:00;4.43;;;1.80;;
5900;SDS011;2976;49.764;9.796;2023-04-03T07:00:26;4.20;;;2.23;;
5900;SDS011;2976;49.764;9.796;2023-04-03T07:02:52;2.67;;;2.07;;
5900;SDS011;2976;49.764;9.796;2023-04-03T07:05:18;5.97;;;2.20;;
5900;SDS011;2976;49.764;9.796;2023-04-03T07:07:44;2.77;;;1.90;;
5900;SDS011;2976;49.764;9.796;2023-04-03T07:10:10;3.33;;;2.00;;
5900;SDS011;2976;49.764;9.796;2023-04-03T07:12:36;3.63;;;1.60;;
5900;SDS011;2976;49.764;9.796;2023-04-03T07:15:02;3.90;;;1.50;;
5900;SDS011;2976;49.764;9.796;2023-04-03T07:17:29;6.00;;;2.00;;
5900;SDS011;2976;49.764;9.796;2023-04-03T07:19:55;9.43;;;2.03;;
5900;SDS011;2976;49.764;9.796;2023-04-03T07:22:20;1.60;;;1.50;;
5900;SDS011;2976;49.764;9.796;2023-04-03T07:24:46;4.07;;;2.10;;
5900;SDS011;2976;49.764;9.796;2023-04-03T07:27:11;4.50;;;1.93;;
5900;SDS011;2976;49.764;9.796;2023-04-03T07:29:37;3.87;;;1.77;;
5900;SDS011;2976;49.764;9.796;2023-04-03T07:32:04;5.73;;;2.20;;
5900;SDS011;2976;49.764;9.796;2023-04-03T07:34:30;4.57;;;2.30;;
5900;SDS011;2976;49.764;9.796;2023-04-03T07:36:56;6.83;;;2.30;;
5900;SDS011;2976;49.764;9.796;2023-04-03T07:39:22;3.10;;;1.87;;
5900;SDS011;2976;49.764;9.796;2023-04-03T07:41:48;2.70;;;2.27;;
5900;SDS011;2976;49.764;9.796;2023-04-03T07:44:13;3.03;;;1.57;;
5900;SDS011;2976;49.764;9.796;2023-04-03T07:46:39;3.73;;;1.40;;
5900;SDS011;2976;49.764;9.796;2023-04-03T07:49:05;6.63;;;2.00;;
5900;SDS011;2976;49.764;9.796;2023-04-03T07:51:31;1.70;;;1.60;;
5900;SDS011;2976;49.764;9.796;2023-04-03T07:53:57;2.60;;;1.90;;
5900;SDS011;2976;49.764;9.796;2023-04-03T07:56:22;5.13;;;2.20;;
5900;SDS011;2976;49.764;9.796;2023-04-03T07:58:48;3.37;;;2.00;;
5900;SDS011;2976;49.764;9.796;2023-04-03T08:01:13;4.37;;;2.30;;
5900;SDS011;2976;49.764;9.796;2023-04-03T08:03:39;5.77;;;1.67;;
5900;SDS011;2976;49.764;9.796;2023-04-03T08:06:05;9.93;;;2.30;;
5900;SDS011;2976;49.764;9.796;2023-04-03T08:08:32;3.10;;;1.90;;
5900;SDS011;2976;49.764;9.796;2023-04-03T08:10:59;2.13;;;1.97;;
5900;SDS011;2976;49.764;9.796;2023-04-03T08:13:25;1.70;;;1.60;;
5900;SDS011;2976;49.764;9.796;2023-04-03T08:15:51;3.00;;;2.47;;
5900;SDS011;2976;49.764;9.796;2023-04-03T08:18:17;2.53;;;1.80;;
5900;SDS011;2976;49.764;9.796;2023-04-03T08:20:46;4.90;;;1.97;;
5900;SDS011;2976;49.764;9.796;2023-04-03T08:23:12;3.50;;;2.13;;
5900;SDS011;2976;49.764;9.796;2023-04-03T08:25:39;2.97;;;2.07;;
5900;SDS011;2976;49.764;9.796;2023-04-03T08:28:05;5.83;;;2.50;;
5900;SDS011;2976;49.764;9.796;2023-04-03T08:30:32;3.57;;;1.80;;
5900;SDS011;2976;49.764;9.796;2023-04-03T08:33:00;5.80;;;2.43;;
5900;SDS011;2976;49.764;9.796;2023-04-03T08:35:26;4.97;;;2.40;;
5900;SDS011;2976;49.764;9.796;2023-04-03T08:37:52;3.50;;;1.60;;
5900;SDS011;2976;49.764;9.796;2023-04-03T08:40:17;2.00;;;1.70;;
5900;SDS011;2976;49.764;9.796;2023-04-03T08:45:46;1.57;;;1.33;;
5900;SDS011;2976;49.764;9.796;2023-04-03T08:48:27;6.87;;;1.90;;
5900;SDS011;2976;49.764;9.796;2023-04-03T08:51:14;4.50;;;1.97;;
5900;SDS011;2976;49.764;9.796;2023-04-03T08:53:43;7.57;;;1.90;;
5900;SDS011;2976;49.764;9.796;2023-04-03T08:56:21;5.30;;;1.90;;
5900;SDS011;2976;49.764;9.796;2023-04-03T08:58:55;6.67;;;1.90;;
5900;SDS011;2976;49.764;9.796;2023-04-03T09:01:27;3.83;;;2.30;;
5900;SDS011;2976;49.764;9.796;2023-04-03T09:04:00;3.47;;;1.80;;
5900;SDS011;2976;49.764;9.796;2023-04-03T09:06:29;4.57;;;1.90;;
5900;SDS011;2976;49.764;9.796;2023-04-03T09:20:12;2.50;;;1.80;;
5900;SDS011;2976;49.764;9.796;2023-04-03T09:22:41;2.67;;;1.70;;
5900;SDS011;2976;49.764;9.796;2023-04-03T09:27:42;5.00;;;2.10;;
5900;SDS011;2976;49.764;9.796;2023-04-03T09:30:18;12.60;;;2.00;;
5900;SDS011;2976;49.764;9.796;2023-04-03T09:32:49;4.10;;;2.17;;
5900;SDS011;2976;49.764;9.796;2023-04-03T09:35:21;2.80;;;1.33;;
5900;SDS011;2976;49.764;9.796;2023-04-03T09:37:49;3.47;;;1.50;;
5900;SDS011;2976;49.764;9.796;2023-04-03T09:40:28;8.37;;;2.20;;
5900;SDS011;2976;49.764;9.796;2023-04-03T09:45:41;2.13;;;1.70;;
5900;SDS011;2976;49.764;9.796;2023-04-03T09:48:12;1.93;;;1.60;;
5900;SDS011;2976;49.764;9.796;2023-04-03T09:53:39;3.37;;;1.70;;
5900;SDS011;2976;49.764;9.796;2023-04-03T09:58:42;5.90;;;1.67;;
5900;SDS011;2976;49.764;9.796;2023-04-03T10:01:31;3.13;;;1.40;;
5900;SDS011;2976;49.764;9.796;2023-04-03T10:04:16;1.50;;;1.43;;
5900;SDS011;2976;49.764;9.796;2023-04-03T10:06:48;4.10;;;1.40;;
5900;SDS011;2976;49.764;9.796;2023-04-03T10:14:29;2.30;;;2.00;;
5900;SDS011;2976;49.764;9.796;2023-04-03T10:17:13;1.50;;;1.40;;
5900;SDS011;2976;49.764;9.796;2023-04-03T10:20:00;6.93;;;1.90;;
5900;SDS011;2976;49.764;9.796;2023-04-03T10:25:35;3.80;;;1.90;;
5900;SDS011;2976;49.764;9.796;2023-04-03T10:28:26;4.90;;;1.23;;
5900;SDS011;2976;49.764;9.796;2023-04-03T10:31:10;2.03;;;1.40;;
5900;SDS011;2976;49.764;9.796;2023-04-03T10:33:51;2.03;;;1.53;;
5900;SDS011;2976;49.764;9.796;2023-04-03T10:41:49;2.57;;;1.40;;
5900;SDS011;2976;49.764;9.796;2023-04-03T10:46:49;3.90;;;2.00;;
5900;SDS011;2976;49.764;9.796;2023-04-03T10:55:09;3.70;;;1.50;;
5900;SDS011;2976;49.764;9.796;2023-04-03T10:57:49;2.73;;;1.63;;
5900;SDS011;2976;49.764;9.796;2023-04-03T11:00:18;1.90;;;1.50;;
5900;SDS011;2976;49.764;9.796;2023-04-03T11:02:54;2.23;;;1.43;;
5900;SDS011;2976;49.764;9.796;2023-04-03T11:05:34;2.50;;;1.53;;
5900;SDS011;2976;49.764;9.796;2023-04-03T11:11:27;1.33;;;1.10;;
5900;SDS011;2976;49.764;9.796;2023-04-03T11:14:05;3.23;;;1.60;;
5900;SDS011;2976;49.764;9.796;2023-04-03T11:22:27;4.63;;;1.40;;
5900;SDS011;2976;49.764;9.796;2023-04-03T11:27:56;2.50;;;1.57;;
5900;SDS011;2976;49.764;9.796;2023-04-03T11:38:43;1.63;;;1.33;;
5900;SDS011;2976;49.764;9.796;2023-04-03T11:41:11;2.83;;;1.57;;
5900;SDS011;2976;49.764;9.796;2023-04-03T11:43:43;1.20;;;1.20;;
5900;SDS011;2976;49.764;9.796;2023-04-03T12:08:51;2.90;;;1.10;;
5900;SDS011;2976;49.764;9.796;2023-04-03T12:16:23;2.20;;;1.03;;
5900;SDS011;2976;49.764;9.796;2023-04-03T12:29:10;0.80;;;0.80;;
5900;SDS011;2976;49.764;9.796;2023-04-03T12:31:48;1.50;;;1.03;;
5900;SDS011;2976;49.764;9.796;2023-04-03T12:35:01;1.70;;;1.60;;
5900;SDS011;2976;49.764;9.796;2023-04-03T12:48:25;3.37;;;1.27;;
5900;SDS011;2976;49.764;9.796;2023-04-03T12:50:53;2.90;;;1.40;;
5900;SDS011;2976;49.764;9.796;2023-04-03T12:56:18;1.73;;;1.30;;
5900;SDS011;2976;49.764;9.796;2023-04-03T12:58:46;1.20;;;1.20;;
5900;SDS011;2976;49.764;9.796;2023-04-03T13:01:20;1.53;;;1.00;;
5900;SDS011;2976;49.764;9.796;2023-04-03T13:03:49;2.83;;;1.03;;
5900;SDS011;2976;49.764;9.796;2023-04-03T13:06:28;1.60;;;1.20;;
5900;SDS011;2976;49.764;9.796;2023-04-03T13:08:58;4.00;;;1.60;;
5900;SDS011;2976;49.764;9.796;2023-04-03T13:11:34;1.63;;;1.13;;
5900;SDS011;2976;49.764;9.796;2023-04-03T13:14:04;0.80;;;0.80;;
5900;SDS011;2976;49.764;9.796;2023-04-03T13:16:39;1.00;;;1.00;;
5900;SDS011;2976;49.764;9.796;2023-04-03T13:19:06;1.30;;;1.20;;
5900;SDS011;2976;49.764;9.796;2023-04-03T13:21:40;1.90;;;1.60;;
5900;SDS011;2976;49.764;9.796;2023-04-03T13:24:06;3.03;;;1.00;;
5900;SDS011;2976;49.764;9.796;2023-04-03T13:26:33;0.90;;;0.90;;
5900;SDS011;2976;49.764;9.796;2023-04-03T13:29:00;2.60;;;1.40;;
5900;SDS011;2976;49.764;9.796;2023-04-03T13:31:29;1.20;;;1.10;;
5900;SDS011;2976;49.764;9.796;2023-04-03T13:34:12;1.33;;;1.20;;
5900;SDS011;2976;49.764;9.796;2023-04-03T13:36:46;2.30;;;1.27;;
5900;SDS011;2976;49.764;9.796;2023-04-03T13:39:26;1.47;;;1.03;;
5900;SDS011;2976;49.764;9.796;2023-04-03T13:41:54;1.43;;;1.33;;
5900;SDS011;2976;49.764;9.796;2023-04-03T13:44:35;1.13;;;1.00;;
5900;SDS011;2976;49.764;9.796;2023-04-03T13:49:43;2.10;;;1.20;;
5900;SDS011;2976;49.764;9.796;2023-04-03T13:52:33;3.13;;;1.33;;
5900;SDS011;2976;49.764;9.796;2023-04-03T13:55:17;2.87;;;1.27;;
5900;SDS011;2976;49.764;9.796;2023-04-03T13:57:53;6.20;;;1.20;;
5900;SDS011;2976;49.764;9.796;2023-04-03T14:00:26;2.10;;;1.23;;
5900;SDS011;2976;49.764;9.796;2023-04-03T14:03:02;1.10;;;1.10;;
5900;SDS011;2976;49.764;9.796;2023-04-03T14:05:37;1.50;;;1.40;;
5900;SDS011;2976;49.764;9.796;2023-04-03T14:08:03;6.73;;;1.70;;
5900;SDS011;2976;49.764;9.796;2023-04-03T14:10:29;3.70;;;1.40;;
5900;SDS011;2976;49.764;9.796;2023-04-03T14:12:55;3.73;;;1.10;;
5900;SDS011;2976;49.764;9.796;2023-04-03T14:15:24;2.67;;;1.03;;
5900;SDS011;2976;49.764;9.796;2023-04-03T14:17:53;1.10;;;0.97;;
5900;SDS011;2976;49.764;9.796;2023-04-03T14:20:21;2.30;;;1.13;;
5900;SDS011;2976;49.764;9.796;2023-04-03T14:22:48;2.07;;;0.93;;
5900;SDS011;2976;49.764;9.796;2023-04-03T14:25:14;3.80;;;1.47;;
5900;SDS011;2976;49.764;9.796;2023-04-03T14:27:42;3.40;;;1.57;;
5900;SDS011;2976;49.764;9.796;2023-04-03T14:30:15;1.20;;;1.10;;
5900;SDS011;2976;49.764;9.796;2023-04-03T14:32:44;2.40;;;1.10;;
5900;SDS011;2976;49.764;9.796;2023-04-03T14:35:10;1.33;;;0.90;;
5900;SDS011;2976;49.764;9.796;2023-04-03T14:37:36;1.33;;;0.87;;
5900;SDS011;2976;49.764;9.796;2023-04-03T14:40:02;5.20;;;1.43;;
5900;SDS011;2976;49.764;9.796;2023-04-03T14:42:32;2.10;;;1.27;;
5900;SDS011;2976;49.764;9.796;2023-04-03T14:45:01;7.07;;;1.93;;
5900;SDS011;2976;49.764;9.796;2023-04-03T14:47:29;4.00;;;1.20;;
5900;SDS011;2976;49.764;9.796;2023-04-03T14:49:55;1.50;;;1.10;;
5900;SDS011;2976;49.764;9.796;2023-04-03T14:52:25;2.30;;;1.30;;
5900;SDS011;2976;49.764;9.796;2023-04-03T14:54:53;3.97;;;1.33;;
5900;SDS011;2976;49.764;9.796;2023-04-03T14:57:27;4.37;;;1.50;;
5900;SDS011;2976;49.764;9.796;2023-04-03T14:59:54;1.10;;;1.00;;
5900;SDS011;2976;49.764;9.796;2023-04-03T15:04:48;0.93;;;0.93;;
5900;SDS011;2976;49.764;9.796;2023-04-03T15:07:14;3.43;;;1.40;;
5900;SDS011;2976;49.764;9.796;2023-04-03T15:09:40;1.30;;;1.20;;
5900;SDS011;2976;49.764;9.796;2023-04-03T15:12:07;7.70;;;1.30;;
5900;SDS011;2976;49.764;9.796;2023-04-03T15:14:33;2.57;;;1.40;;
5900;SDS011;2976;49.764;9.796;2023-04-03T15:16:59;2.60;;;1.40;;
5900;SDS011;2976;49.764;9.796;2023-04-03T15:19:25;1.97;;;1.27;;
5900;SDS011;2976;49.764;9.796;2023-04-03T15:21:50;3.30;;;1.90;;
5900;SDS011;2976;49.764;9.796;2023-04-03T15:24:16;4.90;;;1.87;;
5900;SDS011;2976;49.764;9.796;2023-04-03T15:26:41;3.90;;;1.40;;
5900;SDS011;2976;49.764;9.796;2023-04-03T15:29:07;1.33;;;1.00;;
5900;SDS011;2976;49.764;9.796;2023-04-03T15:31:33;1.80;;;0.80;;
5900;SDS011;2976;49.764;9.796;2023-04-03T15:33:58;4.77;;;1.07;;
5900;SDS011;2976;49.764;9.796;2023-04-03T15:36:24;2.23;;;1.40;;
5900;SDS011;2976;49.764;9.796;2023-04-03T15:38:50;5.17;;;1.23;;
5900;SDS011;2976;49.764;9.796;2023-04-03T15:41:15;3.07;;;1.20;;
5900;SDS011;2976;49.764;9.796;2023-04-03T15:43:41;1.27;;;1.10;;
5900;SDS011;2976;49.764;9.796;2023-04-03T15:46:07;3.87;;;1.50;;
5900;SDS011;2976;49.764;9.796;2023-04-03T15:48:32;2.63;;;1.60;;
5900;SDS011;2976;49.764;9.796;2023-04-03T15:50:59;1.00;;;1.00;;
5900;SDS011;2976;49.764;9.796;2023-04-03T15:53:25;1.03;;;1.00;;
5900;SDS011;2976;49.764;9.796;2023-04-03T15:55:50;3.70;;;1.30;;
5900;SDS011;2976;49.764;9.796;2023-04-03T15:58:16;1.80;;;1.20;;
5900;SDS011;2976;49.764;9.796;2023-04-03T16:00:42;2.33;;;1.47;;
5900;SDS011;2976;49.764;9.796;2023-04-03T16:03:11;2.33;;;1.20;;
5900;SDS011;2976;49.764;9.796;2023-04-03T16:05:40;3.50;;;1.80;;
5900;SDS011;2976;49.764;9.796;2023-04-03T16:08:06;1.07;;;1.07;;
5900;SDS011;2976;49.764;9.796;2023-04-03T16:10:33;3.50;;;1.30;;
5900;SDS011;2976;49.764;9.796;2023-04-03T16:13:02;6.27;;;1.63;;
5900;SDS011;2976;49.764;9.796;2023-04-03T16:15:29;3.33;;;1.20;;
5900;SDS011;2976;49.764;9.796;2023-04-03T16:17:55;1.20;;;1.00;;
5900;SDS011;2976;49.764;9.796;2023-04-03T16:20:23;2.30;;;0.80;;
5900;SDS011;2976;49.764;9.796;2023-04-03T16:22:48;1.30;;;1.10;;
5900;SDS011;2976;49.764;9.796;2023-04-03T16:25:14;0.90;;;0.73;;
5900;SDS011;2976;49.764;9.796;2023-04-03T16:27:40;8.50;;;1.57;;
5900;SDS011;2976;49.764;9.796;2023-04-03T16:30:06;4.00;;;1.30;;
5900;SDS011;2976;49.764;9.796;2023-04-03T16:32:32;2.47;;;1.30;;
5900;SDS011;2976;49.764;9.796;2023-04-03T16:34:59;1.67;;;1.07;;
5900;SDS011;2976;49.764;9.796;2023-04-03T16:37:25;2.13;;;1.10;;
5900;SDS011;2976;49.764;9.796;2023-04-03T16:39:51;3.00;;;1.07;;
5900;SDS011;2976;49.764;9.796;2023-04-03T16:42:17;1.23;;;1.10;;
5900;SDS011;2976;49.764;9.796;2023-04-03T16:44:42;2.40;;;1.20;;
5900;SDS011;2976;49.764;9.796;2023-04-03T16:47:08;1.00;;;0.90;;
5900;SDS011;2976;49.764;9.796;2023-04-03T16:49:34;2.23;;;1.40;;
5900;SDS011;2976;49.764;9.796;2023-04-03T16:52:00;3.20;;;1.30;;
5900;SDS011;2976;49.764;9.796;2023-04-03T16:54:27;2.23;;;1.33;;
5900;SDS011;2976;49.764;9.796;2023-04-03T16:56:53;1.57;;;1.00;;
5900;SDS011;2976;49.764;9.796;2023-04-03T16:59:18;5.30;;;1.20;;
5900;SDS011;2976;49.764;9.796;2023-04-03T17:01:44;1.80;;;1.27;;
5900;SDS011;2976;49.764;9.796;2023-04-03T17:04:09;4.57;;;1.07;;
5900;SDS011;2976;49.764;9.796;2023-04-03T17:06:35;3.50;;;1.33;;
5900;SDS011;2976;49.764;9.796;2023-04-03T17:09:00;2.03;;;1.00;;
5900;SDS011;2976;49.764;9.796;2023-04-03T17:11:29;2.30;;;1.20;;
5900;SDS011;2976;49.764;9.796;2023-04-03T17:13:55;1.23;;;0.90;;
5900;SDS011;2976;49.764;9.796;2023-04-03T17:16:21;2.43;;;1.07;;
5900;SDS011;2976;49.764;9.796;2023-04-03T17:18:48;11.40;;;0.80;;
5900;SDS011;2976;49.764;9.796;2023-04-03T17:21:14;0.80;;;0.80;;
5900;SDS011;2976;49.764;9.796;2023-04-03T17:23:41;2.67;;;0.87;;
5900;SDS011;2976;49.764;9.796;2023-04-03T17:26:09;1.53;;;1.17;;
5900;SDS011;2976;49.764;9.796;2023-04-03T17:28:35;7.53;;;1.50;;